Friday, October 20, 2017, 9:21 PM EDT
Back to Local

KAVP, Wilkes-barre/scranton International

Location: Pittston, PA, United States Lat: 41.333
Local Time: 9:21 PM EDT ( 1:21 GMT) Lon: -75.733
Time Zone: US/Eastern Elev: 961 ft

Show me the last for .
Show Decoded

2017-10-20 20:54 METAR KAVP 210054Z 11003KT 10SM CLR 11/03 A3023 RMK AO2 SLP237 T01060033 =
2017-10-20 19:54 METAR KAVP 202354Z 00000KT 10SM CLR 12/03 A3022 RMK AO2 SLP235 T01170033 10217
                 20117 53011 =
2017-10-20 18:54 METAR KAVP 202254Z 00000KT 10SM CLR 14/02 A3021 RMK AO2 SLP228 T01440017 =
2017-10-20 17:54 METAR KAVP 202154Z 34006KT 10SM CLR 19/00 A3020 RMK AO2 SLP223 T01890000 =
2017-10-20 16:54 METAR KAVP 202054Z 33008KT 10SM CLR 21/00 A3019 RMK AO2 SLP219 T02060000 55006 =
2017-10-20 15:54 METAR KAVP 201954Z 34009KT 10SM CLR 21/M01 A3018 RMK AO2 SLP218 T02111006 =
2017-10-20 14:54 METAR KAVP 201854Z 33011G19KT 10SM CLR 21/M01 A3020 RMK AO2 SLP221 T02111011 =
2017-10-20 13:54 METAR KAVP 201754Z 34012G17KT 10SM CLR 21/01 A3021 RMK AO2 SLP224 T02060006
                 10206 20078 58007 =
2017-10-20 12:54 METAR KAVP 201654Z 30007KT 10SM CLR 18/03 A3022 RMK AO2 SLP229 T01830028 =
2017-10-20 11:54 METAR KAVP 201554Z 31009KT 10SM CLR 18/03 A3023 RMK AO2 SLP235 T01780033 =
2017-10-20 10:54 METAR KAVP 201454Z 29009KT 10SM CLR 16/04 A3023 RMK AO2 SLP233 T01610039 50012 =
2017-10-20 09:54 METAR KAVP 201354Z 29007KT 10SM CLR 15/05 A3024 RMK AO2 SLP237 T01500050 =
2017-10-20 08:54 METAR KAVP 201254Z 22004KT 9SM CLR 12/07 A3022 RMK AO2 SLP231 T01220072 =
2017-10-20 07:54 METAR KAVP 201154Z 00000KT 8SM CLR 08/07 A3019 RMK AO2 SLP223 T00780067 10144
                 20078 53017 =
2017-10-20 06:54 METAR KAVP 201054Z 00000KT 10SM CLR 11/07 A3017 RMK AO2 SLP212 T01110067 =
2017-10-20 05:54 METAR KAVP 200954Z 25003KT 10SM CLR 10/07 A3016 RMK AO2 SLP210 T01000072 =
2017-10-20 04:54 METAR KAVP 200854Z 25004KT 10SM CLR 12/07 A3014 RMK AO2 SLP203 T01170072 53004 =
2017-10-20 03:54 METAR KAVP 200754Z 21003KT 10SM CLR 12/07 A3013 RMK AO2 SLP198 T01170072 =
2017-10-20 02:54 METAR KAVP 200654Z 22005KT 10SM CLR 13/07 A3013 RMK AO2 SLP197 T01280072 =
2017-10-20 01:54 METAR KAVP 200554Z 23006KT 10SM BKN050 14/07 A3013 RMK AO2 SLP197 T01440072
                 10167 20139 53007 =
2017-10-20 00:54 METAR KAVP 200454Z 23004KT 10SM CLR 14/07 A3012 RMK AO2 SLP193 T01390072
                 402220056 =
2017-10-19 23:54 METAR KAVP 200354Z 23006KT 10SM CLR 15/07 A3011 RMK AO2 SLP191 T01500072 =
2017-10-19 22:54 METAR KAVP 200254Z 22006KT 10SM CLR 16/08 A3011 RMK AO2 SLP191 T01560078 51004 =
2017-10-19 21:54 METAR KAVP 200154Z 21006KT 10SM CLR 16/08 A3010 RMK AO2 SLP191 T01610078 =

Support USWX by starting your Amazon purchase here.